sensor_id;sensor_type;location;lat;lon;timestamp;temperature;humidity
5164;DHT22;2601;50.224;10.126;2023-10-19T14:59:47;18.30;91.90
5164;DHT22;2601;50.224;10.126;2023-10-19T15:02:13;18.40;92.70
5164;DHT22;2601;50.224;10.126;2023-10-19T15:04:39;18.50;92.40
5164;DHT22;2601;50.224;10.126;2023-10-19T15:07:05;18.50;92.50
5164;DHT22;2601;50.224;10.126;2023-10-19T15:09:31;18.50;92.60
5164;DHT22;2601;50.224;10.126;2023-10-19T15:11:58;18.50;92.50
5164;DHT22;2601;50.224;10.126;2023-10-19T15:14:24;18.50;92.40
5164;DHT22;2601;50.224;10.126;2023-10-19T15:16:50;18.60;92.30
5164;DHT22;2601;50.224;10.126;2023-10-19T15:19:16;18.60;92.10
5164;DHT22;2601;50.224;10.126;2023-10-19T15:21:44;18.60;92.00
5164;DHT22;2601;50.224;10.126;2023-10-19T15:24:11;18.60;91.90
5164;DHT22;2601;50.224;10.126;2023-10-19T15:26:38;18.60;91.80
5164;DHT22;2601;50.224;10.126;2023-10-19T15:29:04;18.60;91.80
5164;DHT22;2601;50.224;10.126;2023-10-19T15:31:31;18.60;91.70
5164;DHT22;2601;50.224;10.126;2023-10-19T15:33:56;18.70;91.70
5164;DHT22;2601;50.224;10.126;2023-10-19T15:36:22;18.60;91.60
5164;DHT22;2601;50.224;10.126;2023-10-19T15:38:48;18.70;91.70
5164;DHT22;2601;50.224;10.126;2023-10-19T15:41:15;18.60;91.50
5164;DHT22;2601;50.224;10.126;2023-10-19T15:43:41;18.70;91.60
5164;DHT22;2601;50.224;10.126;2023-10-19T15:46:07;18.70;91.50
5164;DHT22;2601;50.224;10.126;2023-10-19T15:48:39;18.70;91.50
5164;DHT22;2601;50.224;10.126;2023-10-19T15:51:05;18.70;91.70
5164;DHT22;2601;50.224;10.126;2023-10-19T15:53:34;18.70;91.50
5164;DHT22;2601;50.224;10.126;2023-10-19T15:56:00;18.70;91.50
5164;DHT22;2601;50.224;10.126;2023-10-19T15:58:26;18.70;91.40
5164;DHT22;2601;50.224;10.126;2023-10-19T16:00:52;18.70;91.40
5164;DHT22;2601;50.224;10.126;2023-10-19T16:03:18;18.70;91.40
5164;DHT22;2601;50.224;10.126;2023-10-19T16:05:44;18.70;91.40
5164;DHT22;2601;50.224;10.126;2023-10-19T16:08:11;18.70;91.40
5164;DHT22;2601;50.224;10.126;2023-10-19T16:10:36;18.70;91.40
5164;DHT22;2601;50.224;10.126;2023-10-19T16:13:02;18.70;91.50
5164;DHT22;2601;50.224;10.126;2023-10-19T16:15:28;18.70;91.50
5164;DHT22;2601;50.224;10.126;2023-10-19T16:17:54;18.70;91.40
5164;DHT22;2601;50.224;10.126;2023-10-19T16:20:20;18.70;91.40
5164;DHT22;2601;50.224;10.126;2023-10-19T16:22:46;18.70;91.40
5164;DHT22;2601;50.224;10.126;2023-10-19T16:25:12;18.70;91.40
5164;DHT22;2601;50.224;10.126;2023-10-19T16:27:38;18.70;91.40
5164;DHT22;2601;50.224;10.126;2023-10-19T16:30:04;18.70;91.40
5164;DHT22;2601;50.224;10.126;2023-10-19T16:32:35;18.70;91.40
5164;DHT22;2601;50.224;10.126;2023-10-19T16:35:01;18.70;91.40
5164;DHT22;2601;50.224;10.126;2023-10-19T16:37:29;18.70;91.40
5164;DHT22;2601;50.224;10.126;2023-10-19T16:39:54;18.80;91.50
5164;DHT22;2601;50.224;10.126;2023-10-19T16:42:21;18.80;91.40
5164;DHT22;2601;50.224;10.126;2023-10-19T16:44:47;18.80;91.40
5164;DHT22;2601;50.224;10.126;2023-10-19T16:47:13;18.80;91.40
5164;DHT22;2601;50.224;10.126;2023-10-19T16:49:38;18.80;91.50
5164;DHT22;2601;50.224;10.126;2023-10-19T16:52:04;18.80;91.40
5164;DHT22;2601;50.224;10.126;2023-10-19T16:54:30;18.80;91.40
5164;DHT22;2601;50.224;10.126;2023-10-19T16:56:56;18.80;91.40
5164;DHT22;2601;50.224;10.126;2023-10-19T16:59:22;18.80;91.40
5164;DHT22;2601;50.224;10.126;2023-10-19T17:01:47;18.80;91.40
5164;DHT22;2601;50.224;10.126;2023-10-19T17:04:13;18.80;91.40
5164;DHT22;2601;50.224;10.126;2023-10-19T17:06:40;18.80;91.40
5164;DHT22;2601;50.224;10.126;2023-10-19T17:09:12;18.80;91.40
5164;DHT22;2601;50.224;10.126;2023-10-19T17:11:39;18.80;91.40
5164;DHT22;2601;50.224;10.126;2023-10-19T17:14:05;18.80;91.40
5164;DHT22;2601;50.224;10.126;2023-10-19T17:16:33;18.80;91.70
5164;DHT22;2601;50.224;10.126;2023-10-19T17:19:00;18.80;91.40
5164;DHT22;2601;50.224;10.126;2023-10-19T17:21:26;18.80;91.40
5164;DHT22;2601;50.224;10.126;2023-10-19T17:23:52;18.80;91.40
5164;DHT22;2601;50.224;10.126;2023-10-19T17:26:19;18.80;91.40
5164;DHT22;2601;50.224;10.126;2023-10-19T17:28:45;18.80;91.50
5164;DHT22;2601;50.224;10.126;2023-10-19T17:31:10;18.80;91.50
5164;DHT22;2601;50.224;10.126;2023-10-19T17:33:37;18.80;91.50
5164;DHT22;2601;50.224;10.126;2023-10-19T17:36:03;18.80;91.40
5164;DHT22;2601;50.224;10.126;2023-10-19T17:38:29;18.80;91.50
5164;DHT22;2601;50.224;10.126;2023-10-19T17:40:56;18.80;91.50
5164;DHT22;2601;50.224;10.126;2023-10-19T17:43:22;18.80;91.50
5164;DHT22;2601;50.224;10.126;2023-10-19T17:45:47;18.80;91.50
5164;DHT22;2601;50.224;10.126;2023-10-19T17:48:14;18.80;91.50
5164;DHT22;2601;50.224;10.126;2023-10-19T17:50:39;18.80;91.50
5164;DHT22;2601;50.224;10.126;2023-10-19T17:53:05;18.80;91.50
5164;DHT22;2601;50.224;10.126;2023-10-19T17:55:31;18.80;91.50
5164;DHT22;2601;50.224;10.126;2023-10-19T17:57:58;18.80;91.50
5164;DHT22;2601;50.224;10.126;2023-10-19T18:00:24;18.80;91.50
5164;DHT22;2601;50.224;10.126;2023-10-19T18:02:50;18.80;91.50
5164;DHT22;2601;50.224;10.126;2023-10-19T18:05:20;18.80;91.50
5164;DHT22;2601;50.224;10.126;2023-10-19T18:07:46;18.80;91.50
5164;DHT22;2601;50.224;10.126;2023-10-19T18:10:12;18.80;91.50
5164;DHT22;2601;50.224;10.126;2023-10-19T18:12:38;18.80;91.50
5164;DHT22;2601;50.224;10.126;2023-10-19T18:15:05;18.80;91.40
5164;DHT22;2601;50.224;10.126;2023-10-19T18:17:37;18.80;91.40
5164;DHT22;2601;50.224;10.126;2023-10-19T18:20:06;18.80;91.40
5164;DHT22;2601;50.224;10.126;2023-10-19T18:22:36;18.80;91.50
5164;DHT22;2601;50.224;10.126;2023-10-19T18:25:02;18.80;91.40
5164;DHT22;2601;50.224;10.126;2023-10-19T18:27:29;18.80;91.40
5164;DHT22;2601;50.224;10.126;2023-10-19T18:29:55;18.80;91.50
5164;DHT22;2601;50.224;10.126;2023-10-19T18:32:21;18.80;91.50
5164;DHT22;2601;50.224;10.126;2023-10-19T18:34:47;18.80;91.50
5164;DHT22;2601;50.224;10.126;2023-10-19T18:37:13;18.80;91.40
5164;DHT22;2601;50.224;10.126;2023-10-19T18:39:39;18.80;91.50
5164;DHT22;2601;50.224;10.126;2023-10-19T18:42:04;18.80;91.50
5164;DHT22;2601;50.224;10.126;2023-10-19T18:44:35;18.80;91.40
5164;DHT22;2601;50.224;10.126;2023-10-19T18:47:01;18.80;91.40
5164;DHT22;2601;50.224;10.126;2023-10-19T18:49:26;18.80;91.40
5164;DHT22;2601;50.224;10.126;2023-10-19T18:51:52;18.80;91.50
5164;DHT22;2601;50.224;10.126;2023-10-19T18:54:17;18.80;91.50
5164;DHT22;2601;50.224;10.126;2023-10-19T18:56:43;18.80;91.50
5164;DHT22;2601;50.224;10.126;2023-10-19T18:59:09;18.80;91.50
5164;DHT22;2601;50.224;10.126;2023-10-19T19:01:34;18.80;91.50
5164;DHT22;2601;50.224;10.126;2023-10-19T19:04:00;18.80;91.50
5164;DHT22;2601;50.224;10.126;2023-10-19T19:06:26;18.80;91.50
5164;DHT22;2601;50.224;10.126;2023-10-19T19:08:51;18.80;91.50
5164;DHT22;2601;50.224;10.126;2023-10-19T19:11:18;18.80;91.40
5164;DHT22;2601;50.224;10.126;2023-10-19T19:13:44;18.80;91.40
5164;DHT22;2601;50.224;10.126;2023-10-19T19:16:11;18.80;91.40
5164;DHT22;2601;50.224;10.126;2023-10-19T19:18:37;18.80;91.70
5164;DHT22;2601;50.224;10.126;2023-10-19T19:21:03;18.80;91.40
5164;DHT22;2601;50.224;10.126;2023-10-19T19:23:36;18.80;91.40
5164;DHT22;2601;50.224;10.126;2023-10-19T19:26:03;18.80;91.70
5164;DHT22;2601;50.224;10.126;2023-10-19T19:28:30;18.80;91.40
5164;DHT22;2601;50.224;10.126;2023-10-19T19:31:01;18.80;91.40
5164;DHT22;2601;50.224;10.126;2023-10-19T19:33:27;18.80;91.40
5164;DHT22;2601;50.224;10.126;2023-10-19T19:35:53;18.80;91.40
5164;DHT22;2601;50.224;10.126;2023-10-19T19:38:19;18.80;91.40
5164;DHT22;2601;50.224;10.126;2023-10-19T19:40:46;18.80;91.40
5164;DHT22;2601;50.224;10.126;2023-10-19T19:43:12;18.80;91.40
5164;DHT22;2601;50.224;10.126;2023-10-19T19:45:37;18.80;91.40
5164;DHT22;2601;50.224;10.126;2023-10-19T19:48:08;18.80;91.40
5164;DHT22;2601;50.224;10.126;2023-10-19T19:50:36;18.80;91.40
5164;DHT22;2601;50.224;10.126;2023-10-19T19:53:05;18.80;91.30
5164;DHT22;2601;50.224;10.126;2023-10-19T19:55:34;18.80;91.30
5164;DHT22;2601;50.224;10.126;2023-10-19T19:58:00;18.80;91.30
5164;DHT22;2601;50.224;10.126;2023-10-19T20:00:26;18.80;91.30
5164;DHT22;2601;50.224;10.126;2023-10-19T20:02:52;18.80;91.30
5164;DHT22;2601;50.224;10.126;2023-10-19T20:05:19;18.80;91.30
5164;DHT22;2601;50.224;10.126;2023-10-19T20:07:46;18.80;91.30
5164;DHT22;2601;50.224;10.126;2023-10-19T20:10:12;18.80;91.30
5164;DHT22;2601;50.224;10.126;2023-10-19T20:12:42;18.80;91.30
5164;DHT22;2601;50.224;10.126;2023-10-19T20:15:11;18.80;91.30
5164;DHT22;2601;50.224;10.126;2023-10-19T20:17:38;18.80;91.20
5164;DHT22;2601;50.224;10.126;2023-10-19T20:20:05;18.80;91.40
5164;DHT22;2601;50.224;10.126;2023-10-19T20:22:41;18.80;91.40
5164;DHT22;2601;50.224;10.126;2023-10-19T20:25:10;18.80;91.40
5164;DHT22;2601;50.224;10.126;2023-10-19T20:27:43;18.80;91.40
5164;DHT22;2601;50.224;10.126;2023-10-19T20:30:10;18.80;91.40
5164;DHT22;2601;50.224;10.126;2023-10-19T20:32:45;18.80;91.40
5164;DHT22;2601;50.224;10.126;2023-10-19T20:35:12;18.80;91.40
5164;DHT22;2601;50.224;10.126;2023-10-19T20:37:39;18.80;91.40
5164;DHT22;2601;50.224;10.126;2023-10-19T20:40:06;18.80;91.40
5164;DHT22;2601;50.224;10.126;2023-10-19T20:42:52;18.80;91.40
5164;DHT22;2601;50.224;10.126;2023-10-19T20:45:22;18.80;91.40
5164;DHT22;2601;50.224;10.126;2023-10-19T20:47:51;18.80;91.40
5164;DHT22;2601;50.224;10.126;2023-10-19T20:50:18;18.80;91.40
5164;DHT22;2601;50.224;10.126;2023-10-19T20:52:49;18.80;91.40
5164;DHT22;2601;50.224;10.126;2023-10-19T20:55:15;18.80;91.40
5164;DHT22;2601;50.224;10.126;2023-10-19T20:57:40;18.80;91.40
5164;DHT22;2601;50.224;10.126;2023-10-19T21:00:07;18.80;91.40
5164;DHT22;2601;50.224;10.126;2023-10-19T21:02:35;18.80;91.40
5164;DHT22;2601;50.224;10.126;2023-10-19T21:05:01;18.80;91.40
5164;DHT22;2601;50.224;10.126;2023-10-19T21:07:26;18.80;91.40
5164;DHT22;2601;50.224;10.126;2023-10-19T21:09:52;18.80;91.40
5164;DHT22;2601;50.224;10.126;2023-10-19T21:12:18;18.80;91.30
5164;DHT22;2601;50.224;10.126;2023-10-19T21:14:43;18.80;91.30
5164;DHT22;2601;50.224;10.126;2023-10-19T21:17:10;18.70;91.30
5164;DHT22;2601;50.224;10.126;2023-10-19T21:19:37;18.80;91.30
5164;DHT22;2601;50.224;10.126;2023-10-19T21:22:03;18.80;91.30
5164;DHT22;2601;50.224;10.126;2023-10-19T21:24:29;18.70;91.30
5164;DHT22;2601;50.224;10.126;2023-10-19T21:26:55;18.80;91.30
5164;DHT22;2601;50.224;10.126;2023-10-19T21:29:20;18.80;91.40
5164;DHT22;2601;50.224;10.126;2023-10-19T21:31:46;18.80;91.40
5164;DHT22;2601;50.224;10.126;2023-10-19T21:34:11;18.70;91.30
5164;DHT22;2601;50.224;10.126;2023-10-19T21:36:38;18.80;91.40
5164;DHT22;2601;50.224;10.126;2023-10-19T21:39:05;18.70;91.30
5164;DHT22;2601;50.224;10.126;2023-10-19T21:41:32;18.70;91.30
5164;DHT22;2601;50.224;10.126;2023-10-19T21:43:58;18.70;91.30
5164;DHT22;2601;50.224;10.126;2023-10-19T21:46:24;18.70;91.30
5164;DHT22;2601;50.224;10.126;2023-10-19T21:48:55;18.70;91.30
5164;DHT22;2601;50.224;10.126;2023-10-19T21:51:22;18.70;91.30
5164;DHT22;2601;50.224;10.126;2023-10-19T21:53:47;18.70;91.30
5164;DHT22;2601;50.224;10.126;2023-10-19T21:56:13;18.70;91.30
5164;DHT22;2601;50.224;10.126;2023-10-19T21:58:39;18.70;91.30
5164;DHT22;2601;50.224;10.126;2023-10-19T22:01:04;18.80;91.40
5164;DHT22;2601;50.224;10.126;2023-10-19T22:03:30;18.70;91.30
5164;DHT22;2601;50.224;10.126;2023-10-19T22:05:56;18.70;91.30
5164;DHT22;2601;50.224;10.126;2023-10-19T22:08:22;18.70;91.30
5164;DHT22;2601;50.224;10.126;2023-10-19T22:10:49;18.70;91.40
5164;DHT22;2601;50.224;10.126;2023-10-19T22:13:15;18.70;91.30
5164;DHT22;2601;50.224;10.126;2023-10-19T22:15:41;18.70;91.30
5164;DHT22;2601;50.224;10.126;2023-10-19T22:18:07;18.70;91.40
5164;DHT22;2601;50.224;10.126;2023-10-19T22:20:34;18.70;91.40
5164;DHT22;2601;50.224;10.126;2023-10-19T22:23:04;18.70;91.40
5164;DHT22;2601;50.224;10.126;2023-10-19T22:25:30;18.70;91.30
5164;DHT22;2601;50.224;10.126;2023-10-19T22:27:59;18.70;91.30
5164;DHT22;2601;50.224;10.126;2023-10-19T22:30:24;18.70;91.30
5164;DHT22;2601;50.224;10.126;2023-10-19T22:32:51;18.70;91.30
5164;DHT22;2601;50.224;10.126;2023-10-19T22:35:17;18.70;91.30
5164;DHT22;2601;50.224;10.126;2023-10-19T22:37:44;18.70;91.30
5164;DHT22;2601;50.224;10.126;2023-10-19T22:40:10;18.70;91.70
5164;DHT22;2601;50.224;10.126;2023-10-19T22:42:36;18.70;91.30
5164;DHT22;2601;50.224;10.126;2023-10-19T22:45:01;18.70;91.30
5164;DHT22;2601;50.224;10.126;2023-10-19T22:47:28;18.70;91.40
5164;DHT22;2601;50.224;10.126;2023-10-19T22:49:55;18.70;91.40
5164;DHT22;2601;50.224;10.126;2023-10-19T22:52:21;18.70;91.40
5164;DHT22;2601;50.224;10.126;2023-10-19T22:54:47;18.70;91.40
5164;DHT22;2601;50.224;10.126;2023-10-19T22:57:13;18.70;91.40
5164;DHT22;2601;50.224;10.126;2023-10-19T22:59:38;18.70;91.40
5164;DHT22;2601;50.224;10.126;2023-10-19T23:02:04;18.70;91.40
5164;DHT22;2601;50.224;10.126;2023-10-19T23:04:30;18.70;91.30
5164;DHT22;2601;50.224;10.126;2023-10-19T23:06:57;18.70;91.30
5164;DHT22;2601;50.224;10.126;2023-10-19T23:09:23;18.70;91.40
5164;DHT22;2601;50.224;10.126;2023-10-19T23:11:57;18.70;91.40
5164;DHT22;2601;50.224;10.126;2023-10-19T23:14:29;18.70;91.40
5164;DHT22;2601;50.224;10.126;2023-10-19T23:16:55;18.70;91.40
5164;DHT22;2601;50.224;10.126;2023-10-19T23:19:28;18.70;91.30
5164;DHT22;2601;50.224;10.126;2023-10-19T23:21:57;18.70;91.40
5164;DHT22;2601;50.224;10.126;2023-10-19T23:24:22;18.70;91.40
5164;DHT22;2601;50.224;10.126;2023-10-19T23:26:55;18.70;91.40
5164;DHT22;2601;50.224;10.126;2023-10-19T23:29:20;18.70;91.40
5164;DHT22;2601;50.224;10.126;2023-10-19T23:31:47;18.70;91.40
5164;DHT22;2601;50.224;10.126;2023-10-19T23:34:15;18.70;91.40
5164;DHT22;2601;50.224;10.126;2023-10-19T23:36:40;18.70;91.40
5164;DHT22;2601;50.224;10.126;2023-10-19T23:39:06;18.70;91.40
5164;DHT22;2601;50.224;10.126;2023-10-19T23:41:33;18.70;91.40
5164;DHT22;2601;50.224;10.126;2023-10-19T23:43:59;18.60;91.40
5164;DHT22;2601;50.224;10.126;2023-10-19T23:46:26;18.70;91.40
5164;DHT22;2601;50.224;10.126;2023-10-19T23:48:51;18.70;91.40
5164;DHT22;2601;50.224;10.126;2023-10-19T23:51:17;18.70;91.40
5164;DHT22;2601;50.224;10.126;2023-10-19T23:53:43;18.70;91.40
5164;DHT22;2601;50.224;10.126;2023-10-19T23:56:09;18.70;91.40
5164;DHT22;2601;50.224;10.126;2023-10-19T23:58:34;18.70;91.40
